Time;durP1;ratioP1;P1;durP2;ratioP2;P2;SDS_P1;SDS_P2;PMS_P1;PMS_P2;Temp;Humidity;BMP_temperature;BMP_pressure;BME280_temperature;BME280_humidity;BME280_pressure;Samples;Min_cycle;Max_cycle;Signal;HPM_P1;HPM_P2
2023/05/19 00:00:14;;;;;;;148.10;86.67;;;20.00;54.80;;;;;;8212083;28;20394;-79
2023/05/19 00:04:16;;;;;;;142.50;83.72;;;19.90;54.80;;;;;;8229673;28;20023;-79
2023/05/19 00:08:17;;;;;;;;;;;20.00;54.80;;;;;;8231088;28;20038;-79
2023/05/19 00:12:18;;;;;;;140.63;82.70;;;20.00;54.80;;;;;;8235317;28;19910;-79
2023/05/19 00:16:19;;;;;;;142.50;82.82;;;19.90;54.80;;;;;;8188512;28;20134;-79
2023/05/19 00:20:21;;;;;;;140.35;82.28;;;19.90;54.80;;;;;;8237797;28;20027;-80
2023/05/19 00:24:21;;;;;;;;;;;20.00;54.90;;;;;;8233284;28;20014;-79
2023/05/19 00:28:22;;;;;;;142.57;82.17;;;19.90;54.80;;;;;;8277849;28;19909;-79
2023/05/19 00:32:22;;;;;;;131.90;80.07;;;19.90;54.80;;;;;;8276652;28;20015;-79
2023/05/19 00:36:23;;;;;;;128.05;78.47;;;20.00;54.90;;;;;;8277383;28;20046;-79
2023/05/19 00:40:25;;;;;;;133.93;80.45;;;19.90;54.80;;;;;;8276669;28;20039;-79
2023/05/19 00:44:26;;;;;;;130.48;77.43;;;19.90;54.80;;;;;;8260337;28;20130;-79
2023/05/19 00:48:27;;;;;;;131.87;79.23;;;19.90;54.80;;;;;;8276376;28;20023;-80
2023/05/19 00:52:27;;;;;;;128.48;77.07;;;20.00;54.90;;;;;;8250989;28;20787;-79
2023/05/19 00:56:28;;;;;;;137.60;79.55;;;19.90;54.80;;;;;;8217104;28;20041;-79
2023/05/19 01:00:30;;;;;;;126.82;74.65;;;19.90;54.80;;;;;;8217574;28;20532;-79
2023/05/19 01:04:33;;;;;;;;;;;19.90;54.90;;;;;;8234395;28;20038;-79
2023/05/19 01:08:36;;;;;;;125.60;74.00;;;19.90;54.80;;;;;;8233597;28;19914;-81
2023/05/19 01:12:37;;;;;;;123.85;73.70;;;19.90;54.80;;;;;;8233648;28;20408;-79
2023/05/19 01:17:04;;;;;;;130.63;76.07;;;19.90;54.90;;;;;;8231697;28;20046;-79
2023/05/19 01:21:35;;;;;;;126.55;74.57;;;19.90;54.80;;;;;;8232116;28;20382;-79
2023/05/19 01:26:05;;;;;;;126.17;73.87;;;19.90;54.80;;;;;;8215935;28;20043;-79
2023/05/19 01:30:12;;;;;;;126.07;74.73;;;19.90;54.90;;;;;;8183795;28;20027;-79
2023/05/19 01:34:15;;;;;;;121.88;72.00;;;19.90;54.90;;;;;;8232974;28;20497;-79
2023/05/19 01:38:18;;;;;;;121.35;72.70;;;19.90;54.90;;;;;;8231060;28;20110;-79
2023/05/19 01:42:19;;;;;;;123.78;70.93;;;19.90;54.90;;;;;;8247332;28;20027;-79
2023/05/19 01:46:20;;;;;;;118.43;71.07;;;19.90;54.90;;;;;;8215252;28;20050;-79
2023/05/19 01:50:21;;;;;;;110.03;69.35;;;19.90;55.20;;;;;;8247337;28;20035;-79
2023/05/19 01:54:22;;;;;;;115.88;69.72;;;19.90;54.90;;;;;;8230776;28;20042;-79
2023/05/19 01:58:45;;;;;;;112.18;70.82;;;19.90;54.90;;;;;;8214345;28;20058;-79
2023/05/19 02:02:58;;;;;;;116.43;68.25;;;19.90;54.90;;;;;;8230381;28;20054;-79
2023/05/19 02:07:11;;;;;;;109.68;68.18;;;19.90;54.90;;;;;;8198750;28;20030;-79
2023/05/19 02:11:26;;;;;;;115.55;67.75;;;19.90;54.90;;;;;;8231906;28;20030;-79
2023/05/19 02:15:33;;;;;;;114.90;65.38;;;19.90;54.90;;;;;;8230040;28;20026;-79
2023/05/19 02:19:38;;;;;;;110.18;65.72;;;19.90;54.90;;;;;;8229965;28;20447;-79
2023/05/19 02:23:40;;;;;;;112.68;66.95;;;19.90;54.90;;;;;;8229979;28;20037;-79
2023/05/19 02:27:41;;;;;;;108.20;64.00;;;19.90;55.00;;;;;;8229701;28;20038;-79
2023/05/19 02:31:42;;;;;;;105.32;63.83;;;19.90;55.00;;;;;;8229585;28;20046;-79
2023/05/19 02:35:43;;;;;;;109.43;64.32;;;19.90;54.90;;;;;;8229669;28;20046;-79
2023/05/19 02:39:43;;;;;;;110.17;63.97;;;19.90;55.00;;;;;;8230797;28;20062;-79
2023/05/19 02:43:44;;;;;;;109.45;64.72;;;19.80;54.90;;;;;;8229044;28;20782;-79
2023/05/19 02:47:45;;;;;;;108.10;65.20;;;19.80;54.90;;;;;;8229170;28;20093;-79
2023/05/19 02:51:45;;;;;;;107.93;62.87;;;19.90;54.90;;;;;;8213453;28;20352;-79
2023/05/19 02:55:46;;;;;;;108.97;63.33;;;19.80;54.90;;;;;;8228850;28;20751;-79
2023/05/19 02:59:47;;;;;;;104.93;63.97;;;19.90;55.00;;;;;;8228507;28;20378;-79
2023/05/19 03:03:47;;;;;;;106.60;62.45;;;19.80;54.90;;;;;;8212746;28;20027;-78
2023/05/19 03:07:48;;;;;;;107.32;63.95;;;19.80;55.00;;;;;;8196529;28;20488;-79
2023/05/19 03:11:48;;;;;;;96.20;60.00;;;19.80;54.90;;;;;;8228647;28;20244;-79
2023/05/19 03:15:49;;;;;;;96.37;60.33;;;19.80;55.50;;;;;;8228494;28;20294;-79
2023/05/19 03:19:50;;;;;;;102.10;59.85;;;19.80;55.00;;;;;;8212782;28;20035;-79
2023/05/19 03:23:51;;;;;;;99.00;59.05;;;19.90;55.00;;;;;;8212658;28;20035;-79
2023/05/19 03:27:52;;;;;;;94.10;59.00;;;19.80;55.50;;;;;;8197517;29;20110;-79
2023/05/19 03:31:52;;;;;;;100.22;58.38;;;19.90;55.00;;;;;;8196171;28;20047;-79
2023/05/19 03:35:53;;;;;;;98.60;59.95;;;19.80;55.00;;;;;;8196674;28;20098;-79
2023/05/19 03:39:54;;;;;;;99.37;58.03;;;19.80;55.00;;;;;;8196265;29;20122;-79
2023/05/19 03:43:54;;;;;;;93.25;57.97;;;19.80;55.00;;;;;;8183060;29;20780;-79
2023/05/19 03:47:55;;;;;;;95.10;58.07;;;19.80;55.00;;;;;;8202961;29;20070;-79
2023/05/19 03:51:56;;;;;;;92.68;56.38;;;19.80;55.00;;;;;;8220063;28;20294;-79
2023/05/19 03:55:58;;;;;;;;;;;19.80;55.00;;;;;;8236058;28;20031;-79
2023/05/19 03:59:58;;;;;;;94.28;56.83;;;19.80;55.00;;;;;;8234142;28;19938;-79
2023/05/19 04:03:59;;;;;;;93.10;57.00;;;19.80;55.00;;;;;;8235368;28;20030;-79
2023/05/19 04:08:00;;;;;;;90.85;55.65;;;19.80;55.00;;;;;;8218457;28;20377;-79
2023/05/19 04:12:03;;;;;;;93.75;56.75;;;19.90;55.20;;;;;;8217719;28;20031;-79
2023/05/19 04:16:05;;;;;;;93.60;58.38;;;19.90;55.10;;;;;;8233779;28;20050;-79
2023/05/19 04:20:06;;;;;;;90.57;56.03;;;19.90;55.00;;;;;;8217531;28;20054;-79
2023/05/19 04:24:07;;;;;;;91.60;55.33;;;20.00;54.80;;;;;;8217483;28;20531;-79
2023/05/19 04:28:07;;;;;;;92.10;55.47;;;20.00;54.70;;;;;;8233297;28;20470;-79
2023/05/19 04:32:09;;;;;;;92.55;55.50;;;20.00;54.60;;;;;;8217984;28;20039;-79
2023/05/19 04:36:10;;;;;;;87.72;53.78;;;20.00;54.60;;;;;;8216967;28;20145;-79
2023/05/19 04:40:12;;;;;;;90.30;53.90;;;20.00;54.60;;;;;;8217180;28;20034;-79
2023/05/19 04:44:16;;;;;;;82.82;53.25;;;20.00;54.60;;;;;;8234132;28;20527;-79
2023/05/19 04:48:17;;;;;;;87.32;53.35;;;20.00;54.60;;;;;;8234093;28;20034;-79
2023/05/19 04:52:20;;;;;;;88.38;53.47;;;20.00;54.60;;;;;;8200873;28;20489;-79
2023/05/19 04:56:21;;;;;;;83.55;50.83;;;20.00;54.60;;;;;;8233497;28;20035;-79
2023/05/19 05:00:22;;;;;;;85.60;52.53;;;20.00;54.60;;;;;;8232482;28;20544;-79
2023/05/19 05:04:23;;;;;;;85.15;51.90;;;20.00;54.70;;;;;;8215826;28;20109;-79
2023/05/19 05:08:23;;;;;;;87.70;52.03;;;20.00;54.80;;;;;;8233611;28;20431;-79
2023/05/19 05:12:24;;;;;;;79.97;50.03;;;20.00;54.70;;;;;;8215530;28;20054;-79
2023/05/19 05:16:25;;;;;;;79.03;50.33;;;20.00;54.60;;;;;;8231880;28;20030;-79
2023/05/19 05:20:26;;;;;;;82.95;51.05;;;20.00;54.60;;;;;;8231814;28;20034;-79
2023/05/19 05:24:27;;;;;;;81.90;50.13;;;20.00;54.60;;;;;;8216262;28;20033;-79
2023/05/19 05:28:28;;;;;;;83.43;50.90;;;20.10;54.60;;;;;;8231579;28;20114;-79
2023/05/19 05:32:29;;;;;;;82.70;48.97;;;20.00;54.60;;;;;;8232741;28;20101;-79
2023/05/19 05:36:30;;;;;;;79.85;49.70;;;20.00;54.60;;;;;;8231453;28;20051;-79
2023/05/19 05:40:31;;;;;;;;;;;20.00;55.10;;;;;;8215769;28;20037;-79
2023/05/19 05:44:34;;;;;;;74.13;47.60;;;20.00;54.60;;;;;;8231266;28;19910;-79
2023/05/19 05:48:35;;;;;;;79.07;48.97;;;20.00;54.70;;;;;;8231174;28;20511;-79
2023/05/19 05:52:36;;;;;;;75.10;46.35;;;20.00;54.60;;;;;;8232363;28;20097;-79
2023/05/19 05:56:37;;;;;;;;;;;20.00;54.60;;;;;;8199774;28;20026;-79
2023/05/19 06:00:38;;;;;;;77.57;47.75;;;20.00;54.70;;;;;;8230720;28;19946;-79
2023/05/19 06:04:39;;;;;;;73.72;47.05;;;20.00;54.80;;;;;;8231646;28;20027;-79
2023/05/19 06:08:40;;;;;;;75.30;46.95;;;20.00;54.70;;;;;;8214275;28;20035;-79
2023/05/19 06:12:42;;;;;;;78.90;48.78;;;20.00;54.60;;;;;;8230206;28;20039;-79
2023/05/19 06:16:42;;;;;;;75.40;46.78;;;20.00;54.60;;;;;;8198588;28;20027;-79
2023/05/19 06:20:43;;;;;;;70.20;45.00;;;20.00;54.60;;;;;;8229858;28;20046;-79
2023/05/19 06:24:44;;;;;;;73.18;45.83;;;20.10;54.60;;;;;;8213594;28;20034;-79
2023/05/19 06:28:44;;;;;;;71.90;44.42;;;20.00;54.60;;;;;;8213507;28;20035;-79
2023/05/19 06:32:45;;;;;;;71.85;44.65;;;20.00;54.60;;;;;;8229903;28;20397;-79
2023/05/19 06:36:46;;;;;;;75.75;45.10;;;20.00;54.60;;;;;;8197357;28;20078;-79
2023/05/19 06:40:47;;;;;;;69.72;45.47;;;20.00;54.60;;;;;;8229616;28;20031;-79
2023/05/19 06:44:49;;;;;;;72.45;44.33;;;20.00;54.60;;;;;;8213398;28;20027;-79
2023/05/19 06:48:49;;;;;;;71.18;44.47;;;20.00;54.60;;;;;;8229152;28;20523;-79
2023/05/19 06:52:50;;;;;;;71.20;44.10;;;20.00;54.70;;;;;;8230834;28;20441;-79
2023/05/19 06:56:51;;;;;;;70.70;44.30;;;20.00;54.60;;;;;;8230246;28;20097;-79
2023/05/19 07:00:52;;;;;;;68.67;42.37;;;20.00;54.60;;;;;;8244769;28;20278;-79
2023/05/19 07:04:52;;;;;;;65.18;42.13;;;20.00;54.60;;;;;;8229021;28;20313;-79
2023/05/19 07:08:53;;;;;;;65.35;41.90;;;20.00;54.60;;;;;;8213095;28;20042;-79
2023/05/19 07:12:54;;;;;;;70.30;42.80;;;20.00;54.60;;;;;;8212683;28;20123;-79
2023/05/19 07:16:54;;;;;;;62.47;40.63;;;20.00;54.60;;;;;;8227973;28;20034;-79
2023/05/19 07:20:56;;;;;;;64.28;40.85;;;20.00;54.60;;;;;;8212396;28;20077;-79
2023/05/19 07:24:57;;;;;;;67.15;41.75;;;20.00;54.60;;;;;;8213057;28;20027;-79
2023/05/19 07:28:57;;;;;;;61.35;39.75;;;20.00;54.60;;;;;;8196451;29;20544;-79
2023/05/19 07:32:58;;;;;;;63.20;39.70;;;20.00;55.20;;;;;;8196417;29;20071;-79
2023/05/19 07:36:59;;;;;;;65.47;41.15;;;20.00;54.60;;;;;;8180335;29;20137;-79
2023/05/19 07:41:01;;;;;;;60.85;39.05;;;19.90;54.60;;;;;;8149011;29;20135;-79
2023/05/19 07:45:02;;;;;;;58.55;38.35;;;19.90;54.60;;;;;;8212816;28;20050;-79
2023/05/19 07:49:03;;;;;;;61.28;38.63;;;19.90;54.60;;;;;;8180695;29;20102;-79
2023/05/19 07:53:04;;;;;;;59.55;38.95;;;19.90;54.60;;;;;;8208066;28;20035;-79
2023/05/19 07:57:04;;;;;;;61.17;38.63;;;19.90;54.60;;;;;;8211747;28;20130;-79
2023/05/19 08:01:05;;;;;;;58.17;37.97;;;19.90;54.80;;;;;;8228014;28;20042;-79
2023/05/19 08:05:12;;;;;;;59.65;38.25;;;20.00;54.80;;;;;;8196221;28;20030;-79
2023/05/19 08:09:12;;;;;;;59.25;38.15;;;20.00;54.60;;;;;;8228180;28;20066;-79
2023/05/19 08:13:13;;;;;;;60.55;36.90;;;20.00;54.60;;;;;;8212950;28;20034;-78
2023/05/19 08:17:14;;;;;;;57.95;36.42;;;20.00;54.60;;;;;;8196887;28;20026;-79
2023/05/19 08:21:14;;;;;;;58.53;36.72;;;20.00;54.50;;;;;;8228918;28;20071;-78
2023/05/19 08:25:15;;;;;;;58.30;36.80;;;20.00;54.50;;;;;;8230941;28;20030;-78
2023/05/19 08:29:16;;;;;;;57.13;36.00;;;20.00;54.50;;;;;;8219166;28;20070;-79
2023/05/19 08:33:19;;;;;;;55.63;36.03;;;20.00;55.00;;;;;;8252591;28;20015;-78
2023/05/19 08:37:20;;;;;;;62.38;37.67;;;20.00;54.50;;;;;;8303084;28;20068;-79
2023/05/19 08:41:22;;;;;;;54.88;35.25;;;20.00;54.50;;;;;;8323856;28;20357;-79
2023/05/19 08:45:23;;;;;;;54.40;34.45;;;20.00;54.50;;;;;;8332050;28;20164;-79
2023/05/19 08:49:29;;;;;;;54.80;35.42;;;20.00;54.60;;;;;;8301813;28;20030;-79
2023/05/19 08:53:35;;;;;;;55.47;34.70;;;20.00;54.60;;;;;;8314092;28;20049;-79
2023/05/19 08:57:37;;;;;;;51.63;34.58;;;20.00;54.60;;;;;;8317261;28;20033;-79
2023/05/19 09:01:39;;;;;;;54.28;35.25;;;20.00;54.60;;;;;;8306176;28;20503;-79
2023/05/19 09:05:40;;;;;;;51.10;33.10;;;20.00;54.60;;;;;;8282018;28;20118;-79
2023/05/19 09:09:42;;;;;;;52.75;33.58;;;20.00;54.60;;;;;;8265002;28;20434;-79
2023/05/19 09:13:43;;;;;;;54.40;35.40;;;20.00;54.70;;;;;;8280716;28;20033;-79
2023/05/19 09:17:47;;;;;;;52.87;34.30;;;20.00;54.60;;;;;;8296912;28;20030;-79
2023/05/19 09:22:02;;;;;;;54.83;35.00;;;20.00;54.70;;;;;;8264096;28;20376;-79
2023/05/19 09:26:06;;;;;;;49.25;32.03;;;19.90;54.60;;;;;;8297744;28;20558;-79
2023/05/19 09:30:08;;;;;;;50.25;32.72;;;20.00;54.60;;;;;;8263986;28;20026;-79
2023/05/19 09:34:12;;;;;;;49.78;33.50;;;19.90;54.60;;;;;;8296142;28;20053;-79
2023/05/19 09:38:20;;;;;;;52.55;33.05;;;19.90;54.60;;;;;;8234361;28;20062;-79
2023/05/19 09:42:25;;;;;;;49.30;32.83;;;19.90;54.60;;;;;;8198886;28;20126;-79
2023/05/19 09:46:27;;;;;;;47.83;32.78;;;19.90;54.70;;;;;;8215306;28;20038;-79
2023/05/19 09:50:29;;;;;;;;;;;19.90;54.80;;;;;;8232856;28;20062;-79
2023/05/19 09:54:32;;;;;;;46.67;30.55;;;20.00;54.70;;;;;;8215195;28;19910;-79
2023/05/19 09:58:34;;;;;;;46.20;30.30;;;20.00;54.60;;;;;;8232028;28;20038;-79
2023/05/19 10:02:35;;;;;;;46.92;30.75;;;20.00;54.60;;;;;;8214785;28;20592;-79
2023/05/19 10:06:36;;;;;;;46.13;30.92;;;20.10;54.60;;;;;;8231186;28;20115;-79
2023/05/19 10:10:37;;;;;;;47.15;30.50;;;20.10;54.50;;;;;;8231880;28;20027;-79
2023/05/19 10:14:39;;;;;;;49.22;30.75;;;20.00;54.40;;;;;;8230170;28;20114;-79
2023/05/19 10:18:40;;;;;;;45.17;30.35;;;20.00;54.50;;;;;;8213921;28;20026;-79
2023/05/19 10:22:42;;;;;;;51.00;32.28;;;20.10;54.50;;;;;;8230229;28;20030;-79
2023/05/19 10:26:46;;;;;;;48.33;31.55;;;20.00;54.50;;;;;;8229728;28;20035;-79
2023/05/19 10:30:52;;;;;;;42.00;28.15;;;20.00;54.50;;;;;;8230868;28;20420;-79
2023/05/19 10:35:15;;;;;;;46.17;30.50;;;20.00;54.50;;;;;;8231103;28;20023;-79
2023/05/19 10:39:26;;;;;;;43.80;30.65;;;20.00;54.50;;;;;;8229362;28;20043;-79
2023/05/19 10:43:37;;;;;;;40.85;27.80;;;20.00;54.60;;;;;;8230484;28;20050;-79
2023/05/19 10:47:40;;;;;;;43.78;28.63;;;20.00;54.60;;;;;;8245377;28;20122;-79
2023/05/19 10:51:44;;;;;;;45.90;29.23;;;20.00;54.60;;;;;;8230432;28;20436;-79
2023/05/19 10:55:49;;;;;;;41.35;27.80;;;20.00;54.60;;;;;;8196875;28;20077;-79
2023/05/19 10:59:49;;;;;;;44.20;29.13;;;20.00;54.60;;;;;;8213174;28;20042;-79
2023/05/19 11:03:55;;;;;;;43.38;29.10;;;20.00;54.70;;;;;;8229116;28;20503;-79
2023/05/19 11:08:09;;;;;;;41.05;27.92;;;20.00;54.60;;;;;;8197081;28;20493;-79
2023/05/19 11:12:10;;;;;;;42.95;28.50;;;20.00;54.70;;;;;;8229881;28;20041;-79
2023/05/19 11:16:11;;;;;;;40.63;27.92;;;20.00;54.60;;;;;;8212641;28;20036;-79
2023/05/19 11:20:38;;;;;;;43.22;27.98;;;20.00;54.60;;;;;;8228719;28;20035;-79
2023/05/19 11:24:46;;;;;;;41.30;27.45;;;19.90;54.60;;;;;;8224990;28;20090;-79
2023/05/19 11:28:47;;;;;;;39.08;27.00;;;20.00;54.70;;;;;;8228498;28;20038;-79
2023/05/19 11:32:48;;;;;;;42.03;27.05;;;20.00;54.60;;;;;;8228004;28;20074;-79
2023/05/19 11:36:50;;;;;;;39.38;26.77;;;19.90;54.60;;;;;;8228210;28;20055;-79
2023/05/19 11:40:54;;;;;;;41.25;26.88;;;20.00;54.80;;;;;;8228450;28;20058;-79
2023/05/19 11:44:55;;;;;;;39.30;26.40;;;20.00;54.70;;;;;;8227839;28;20094;-79
2023/05/19 11:48:56;;;;;;;39.17;26.23;;;20.00;54.60;;;;;;8212075;28;20178;-79
2023/05/19 11:52:59;;;;;;;38.13;26.77;;;20.00;54.60;;;;;;8228319;28;20034;-79
2023/05/19 11:57:01;;;;;;;39.78;26.02;;;20.10;54.50;;;;;;8229082;28;20040;-79
2023/05/19 12:01:05;;;;;;;39.60;26.50;;;20.10;54.50;;;;;;8195882;28;20045;-79
2023/05/19 12:05:07;;;;;;;36.13;24.92;;;20.10;54.50;;;;;;8247399;28;20082;-79
2023/05/19 12:09:08;;;;;;;39.03;25.88;;;20.10;54.50;;;;;;8202258;28;20043;-79
2023/05/19 12:13:09;;;;;;;39.47;26.75;;;20.10;54.50;;;;;;8217930;28;20082;-79
2023/05/19 12:17:13;;;;;;;37.30;24.27;;;20.10;54.50;;;;;;8233699;28;20485;-79
2023/05/19 12:21:14;;;;;;;38.75;25.48;;;20.00;54.50;;;;;;8234813;28;20019;-79
2023/05/19 12:25:15;;;;;;;37.92;25.75;;;20.00;54.50;;;;;;8234442;28;20085;-79
2023/05/19 12:29:16;;;;;;;37.75;24.45;;;20.00;54.50;;;;;;8234407;28;20035;-79
2023/05/19 12:33:18;;;;;;;39.47;26.17;;;20.00;54.60;;;;;;8249607;28;20038;-79
2023/05/19 12:37:19;;;;;;;34.88;24.67;;;20.00;54.60;;;;;;8233324;28;20049;-79
2023/05/19 12:41:20;;;;;;;37.17;25.20;;;20.00;54.60;;;;;;8216802;28;20031;-79
2023/05/19 12:45:22;;;;;;;37.55;24.42;;;20.00;54.60;;;;;;8217177;28;20027;-79
2023/05/19 12:49:22;;;;;;;34.72;23.52;;;20.00;54.60;;;;;;8216870;28;20117;-79
2023/05/19 12:53:26;;;;;;;34.95;24.20;;;20.00;54.60;;;;;;8234007;28;20027;-79
2023/05/19 12:57:31;;;;;;;36.45;24.15;;;20.00;54.60;;;;;;8232711;28;20038;-79
2023/05/19 13:01:35;;;;;;;35.33;23.38;;;20.00;54.60;;;;;;8232544;28;20374;-79
2023/05/19 13:05:38;;;;;;;37.60;24.13;;;20.00;54.60;;;;;;8232245;28;20031;-79
2023/05/19 13:09:39;;;;;;;35.03;24.83;;;20.00;54.60;;;;;;8234127;28;20157;-79
2023/05/19 13:13:39;;;;;;;35.47;22.87;;;20.00;54.60;;;;;;8200058;28;20477;-79
2023/05/19 13:17:40;;;;;;;33.27;23.13;;;20.00;54.70;;;;;;8214912;28;20692;-79
2023/05/19 13:21:41;;;;;;;36.17;23.27;;;19.90;54.60;;;;;;8215962;28;20286;-79
2023/05/19 13:25:42;;;;;;;34.63;22.63;;;20.00;54.90;;;;;;8216059;28;20282;-79
2023/05/19 13:29:42;;;;;;;32.28;22.75;;;20.00;54.80;;;;;;8215876;28;20349;-79
2023/05/19 13:33:43;;;;;;;33.87;22.77;;;20.00;54.60;;;;;;8247854;28;20042;-80
2023/05/19 13:37:44;;;;;;;34.33;22.93;;;20.00;54.70;;;;;;8215200;28;20794;-80
2023/05/19 13:41:45;;;;;;;30.88;21.17;;;20.00;54.60;;;;;;8215334;28;20459;-80
2023/05/19 13:45:46;;;;;;;33.83;23.00;;;20.00;54.60;;;;;;8215035;28;20084;-80
2023/05/19 13:49:47;;;;;;;32.80;21.35;;;20.00;54.60;;;;;;8231069;28;20027;-79
2023/05/19 13:53:47;;;;;;;35.05;23.33;;;20.00;54.60;;;;;;8215291;28;20031;-80
2023/05/19 13:57:48;;;;;;;31.48;20.95;;;20.00;54.60;;;;;;8183081;29;20085;-79
2023/05/19 14:01:49;;;;;;;29.45;20.42;;;20.00;54.60;;;;;;8198603;29;20031;-80
2023/05/19 14:05:49;;;;;;;31.50;21.48;;;20.00;54.70;;;;;;8198672;29;20031;-80
2023/05/19 14:09:51;;;;;;;32.07;21.73;;;20.00;54.60;;;;;;8182458;29;20051;-79
2023/05/19 14:13:51;;;;;;;31.45;21.67;;;20.00;54.60;;;;;;8166714;29;20287;-80
2023/05/19 14:17:52;;;;;;;29.67;20.48;;;20.00;55.20;;;;;;8182497;29;20050;-79
2023/05/19 14:21:53;;;;;;;30.57;20.07;;;20.00;54.70;;;;;;8200537;28;20048;-79
2023/05/19 14:25:53;;;;;;;30.67;20.90;;;19.90;54.60;;;;;;8197741;28;20309;-79
2023/05/19 14:29:54;;;;;;;30.15;20.60;;;20.00;55.20;;;;;;8213686;28;20282;-80
2023/05/19 14:33:55;;;;;;;33.95;21.77;;;20.00;54.70;;;;;;8229811;28;20039;-79
2023/05/19 14:37:55;;;;;;;28.83;19.65;;;20.00;54.90;;;;;;8255668;28;20065;-80
2023/05/19 14:41:58;;;;;;;29.80;20.08;;;20.00;55.20;;;;;;8261734;28;20447;-79
2023/05/19 14:45:59;;;;;;;26.67;19.90;;;20.00;54.60;;;;;;8245587;28;20443;-80
2023/05/19 14:49:59;;;;;;;28.15;19.73;;;20.00;54.60;;;;;;8261329;28;20112;-80
2023/05/19 14:54:01;;;;;;;28.35;18.98;;;20.00;54.60;;;;;;8261368;28;20510;-80
2023/05/19 14:58:01;;;;;;;;;;;20.00;54.60;;;;;;8245367;28;20125;-80
2023/05/19 15:02:02;;;;;;;27.43;19.27;;;20.00;54.60;;;;;;8261131;28;19910;-79
2023/05/19 15:06:06;;;;;;;29.02;19.30;;;20.00;54.70;;;;;;8260751;28;20109;-80
2023/05/19 15:10:07;;;;;;;27.23;19.02;;;20.00;54.60;;;;;;8262397;28;20352;-80
2023/05/19 15:14:08;;;;;;;28.20;19.90;;;20.00;54.60;;;;;;8260661;28;20138;-80
2023/05/19 15:18:08;;;;;;;30.00;19.50;;;20.00;54.60;;;;;;8260674;28;20104;-80
2023/05/19 15:22:09;;;;;;;27.80;19.23;;;20.00;54.60;;;;;;8260900;28;20323;-80
2023/05/19 15:26:10;;;;;;;27.02;19.08;;;20.00;54.60;;;;;;8260657;28;20089;-80
2023/05/19 15:30:11;;;;;;;27.52;18.85;;;20.00;54.60;;;;;;8244249;28;20429;-80
2023/05/19 15:34:11;;;;;;;27.45;18.83;;;20.00;54.70;;;;;;8260452;28;20037;-80
2023/05/19 15:38:12;;;;;;;25.50;18.77;;;20.00;54.70;;;;;;8231871;28;20051;-80
2023/05/19 15:42:13;;;;;;;27.75;19.17;;;20.00;54.70;;;;;;8235033;28;20062;-79
2023/05/19 15:46:14;;;;;;;26.73;19.03;;;20.00;54.80;;;;;;8218984;28;20035;-80
2023/05/19 15:50:15;;;;;;;27.83;19.30;;;20.00;54.90;;;;;;8234592;28;20629;-80
2023/05/19 15:54:16;;;;;;;26.52;18.27;;;20.00;54.60;;;;;;8202872;28;20031;-79
2023/05/19 15:58:16;;;;;;;29.20;19.23;;;20.00;54.70;;;;;;8234110;28;20094;-79
2023/05/19 16:02:17;;;;;;;26.17;19.10;;;20.00;54.60;;;;;;8234607;28;20839;-80
2023/05/19 16:06:18;;;;;;;25.20;16.87;;;20.00;54.60;;;;;;8233972;28;20031;-79
2023/05/19 16:10:18;;;;;;;23.25;17.35;;;20.00;54.60;;;;;;8218184;28;20289;-79
2023/05/19 16:14:19;;;;;;;27.08;18.25;;;20.00;54.60;;;;;;8201975;28;20031;-80
2023/05/19 16:18:20;;;;;;;23.77;16.77;;;20.00;54.60;;;;;;8186112;28;20121;-80
2023/05/19 16:22:23;;;;;;;24.27;17.85;;;20.00;54.60;;;;;;8218495;28;20113;-80
2023/05/19 16:26:24;;;;;;;24.83;17.25;;;20.00;54.70;;;;;;8218578;28;20038;-79
2023/05/19 16:30:26;;;;;;;24.30;16.80;;;20.00;54.70;;;;;;8202628;28;20039;-80
2023/05/19 16:34:27;;;;;;;21.85;16.13;;;20.00;54.70;;;;;;8204041;28;20038;-79
2023/05/19 16:38:28;;;;;;;24.77;16.57;;;20.00;54.70;;;;;;8237055;28;20051;-79
2023/05/19 16:42:28;;;;;;;25.75;16.85;;;20.00;54.70;;;;;;8238278;28;20042;-79
2023/05/19 16:46:29;;;;;;;24.17;16.65;;;20.00;54.70;;;;;;8275529;28;20058;-80
2023/05/19 16:50:30;;;;;;;23.85;16.42;;;20.00;54.80;;;;;;8276734;28;20023;-80
2023/05/19 16:54:30;;;;;;;23.20;16.75;;;20.00;54.80;;;;;;8244220;28;20039;-80
2023/05/19 16:58:31;;;;;;;22.85;16.20;;;20.00;54.80;;;;;;8244699;28;20039;-79
2023/05/19 17:02:32;;;;;;;24.17;16.77;;;20.00;54.80;;;;;;8228066;28;20114;-80
2023/05/19 17:06:32;;;;;;;20.95;14.93;;;20.00;54.80;;;;;;8211769;28;20279;-80
2023/05/19 17:10:33;;;;;;;24.17;16.95;;;19.90;54.80;;;;;;8215663;28;20106;-80
2023/05/19 17:14:34;;;;;;;23.42;16.55;;;20.00;55.00;;;;;;8201210;29;20059;-80
2023/05/19 17:18:35;;;;;;;24.98;16.52;;;20.00;54.90;;;;;;8202267;29;20512;-80
2023/05/19 17:22:35;;;;;;;23.35;16.70;;;20.00;54.80;;;;;;8191811;28;20041;-80
2023/05/19 17:26:36;;;;;;;25.17;16.60;;;20.10;54.70;;;;;;8215799;28;20109;-79
2023/05/19 17:30:40;;;;;;;22.75;15.63;;;20.10;54.70;;;;;;8231688;28;20039;-80
2023/05/19 17:34:40;;;;;;;20.48;15.32;;;20.10;54.70;;;;;;8215744;28;20066;-80
2023/05/19 17:38:41;;;;;;;20.92;15.18;;;20.10;54.70;;;;;;8215143;28;20039;-80
2023/05/19 17:42:41;;;;;;;20.27;14.68;;;20.10;54.70;;;;;;8215282;28;20031;-80
2023/05/19 17:46:42;;;;;;;20.48;14.52;;;20.10;54.70;;;;;;8215009;28;20485;-80
2023/05/19 17:50:46;;;;;;;22.17;15.45;;;20.10;54.70;;;;;;8231210;28;20493;-80
2023/05/19 17:54:47;;;;;;;21.50;14.82;;;20.10;54.70;;;;;;8215340;28;20488;-80
2023/05/19 17:58:48;;;;;;;21.65;15.52;;;20.10;54.70;;;;;;8214446;28;20507;-79
2023/05/19 18:02:49;;;;;;;21.88;15.13;;;20.10;54.70;;;;;;8230184;28;20035;-79
2023/05/19 18:06:51;;;;;;;22.20;15.70;;;20.00;54.60;;;;;;8214896;28;20034;-80
2023/05/19 18:10:53;;;;;;;20.02;14.63;;;20.00;54.60;;;;;;8231741;28;20109;-79
2023/05/19 18:14:54;;;;;;;20.40;14.48;;;20.00;54.60;;;;;;8230259;28;20027;-80
2023/05/19 18:18:54;;;;;;;20.10;14.75;;;20.00;54.70;;;;;;8214612;28;20041;-80
2023/05/19 18:22:56;;;;;;;18.15;13.93;;;20.00;54.70;;;;;;8232297;28;20031;-80
2023/05/19 18:26:57;;;;;;;19.67;14.15;;;20.00;55.30;;;;;;8198364;28;20043;-80
2023/05/19 18:31:03;;;;;;;20.70;15.13;;;20.00;54.70;;;;;;8229737;28;20043;-80
2023/05/19 18:35:04;;;;;;;18.77;14.15;;;20.00;54.70;;;;;;8230641;28;20051;-80
2023/05/19 18:39:05;;;;;;;19.90;13.93;;;20.00;54.80;;;;;;8213797;28;20045;-80
2023/05/19 18:43:06;;;;;;;18.95;14.43;;;20.00;54.80;;;;;;8230602;28;20062;-80
2023/05/19 18:47:06;;;;;;;19.35;14.25;;;20.00;54.80;;;;;;8229636;28;20039;-80
2023/05/19 18:51:08;;;;;;;19.85;13.18;;;20.00;54.80;;;;;;8181697;28;20039;-80
2023/05/19 18:55:08;;;;;;;;;;;20.00;54.80;;;;;;8181894;29;20035;-80
2023/05/19 18:59:10;;;;;;;19.87;13.33;;;20.00;54.80;;;;;;8196941;29;19956;-80
2023/05/19 19:03:10;;;;;;;20.00;14.32;;;19.90;54.90;;;;;;8198633;29;20031;-79
2023/05/19 19:07:11;;;;;;;19.17;13.73;;;20.00;55.00;;;;;;8165056;29;20039;-79
2023/05/19 19:11:12;;;;;;;19.00;13.80;;;20.00;55.00;;;;;;8196850;29;20409;-80
2023/05/19 19:15:12;;;;;;;19.50;13.70;;;20.00;54.80;;;;;;8165377;29;20046;-80
2023/05/19 19:19:13;;;;;;;19.45;13.50;;;20.10;54.70;;;;;;8180593;29;20035;-80
2023/05/19 19:23:14;;;;;;;16.73;12.50;;;20.00;54.60;;;;;;8210160;28;20038;-81
2023/05/19 19:27:19;;;;;;;18.90;12.75;;;20.10;54.70;;;;;;8228398;28;20088;-81
2023/05/19 19:31:20;;;;;;;19.65;13.15;;;20.10;54.70;;;;;;8228868;28;20035;-81
2023/05/19 19:35:21;;;;;;;18.33;13.02;;;20.10;54.70;;;;;;8228390;28;20058;-81
2023/05/19 19:39:21;;;;;;;16.38;11.57;;;20.00;54.60;;;;;;8228463;28;20043;-80
2023/05/19 19:43:22;;;;;;;17.40;11.43;;;20.10;54.10;;;;;;8212115;28;20039;-80
2023/05/19 19:47:23;;;;;;;17.23;11.95;;;20.10;54.30;;;;;;8211998;28;20668;-80
2023/05/19 19:51:23;;;;;;;17.13;11.98;;;20.10;54.50;;;;;;8212297;28;20532;-80
2023/05/19 19:55:24;;;;;;;17.58;11.73;;;20.10;54.50;;;;;;8212441;28;20039;-80
2023/05/19 19:59:25;;;;;;;18.23;11.98;;;20.10;54.60;;;;;;8227876;28;20560;-78
2023/05/19 20:03:26;;;;;;;17.20;12.15;;;20.20;54.50;;;;;;8228730;28;20043;-81
2023/05/19 20:07:27;;;;;;;17.73;11.77;;;20.20;55.00;;;;;;8206165;28;20086;-80
2023/05/19 20:11:28;;;;;;;;;;;20.20;55.30;;;;;;8181148;29;20039;-80
2023/05/19 20:15:29;;;;;;;17.27;12.33;;;20.30;55.50;;;;;;8223862;28;19906;-81
2023/05/19 20:19:30;;;;;;;18.30;12.55;;;20.30;55.20;;;;;;8212740;28;20054;-81
2023/05/19 20:23:30;;;;;;;18.95;12.23;;;20.30;55.20;;;;;;8213731;28;20249;-81
2023/05/19 20:27:31;;;;;;;16.43;11.70;;;20.30;55.20;;;;;;8235202;28;20031;-81